Airfield :
LOGIN :

Register | Disclaimer

   EN    FR    IT 

 










Legend :    VFR   Marginal VFR   IFR   Intensive IFR   Very Intensive IFR
Visi :
Ceiling :
>= 8 km
>= 3000ft
5 to 8 km
1000 to 3000 ft
1500m to 5 km
500 to 1000 ft
800 to 1500m
200 to 500 ft
< 800m
< 200 ft
Symbols :   Thunderstorms  Fog  Heavy snow  Heavy precipitations  Wind > 20 kt
SIGMETs :     Misc.  Thunderstorms  Icing  Turbulence  Mountain Waves  Volcanic Ashes







- Airport Elevation : 15 ft
- IATA code : GIB


LXGB - Gibraltar

CURRENT METAR :
  • 181750Z 21008KT 9000 RA FEW013 BKN018 BKN035 15/13 Q1002 TEMPO 6000 RA

EXPIRED METARs :
  • 181709Z 18007G19KT 8000 -RA FEW015 SCT023 BKN030 15/12 Q1002 RERA WHT TEMPO 6000 SHRA WHT
  • 181656Z 12006KT 4000 +RA SCT015 BKN030 15/13 Q1002 GRN TEMPO 3000 +TSRA YLO1
  • 181650Z 11006KT 9999 7000W RA BKN030 BKN090 15/13 Q1002 TEMPO TSRA
  • 181550Z 19002KT 9999 FEW020 BKN100 15/11 Q1002 RERA NOSIG

TAF TAF LXGB
Valid from the 18 at 18:00 until the 18 at 23:00 UTC


181642Z 1818/1823 22015KT 9999 SCT035 530002
PROB40
TEMPO 1818/1823 22025G35KT 3000 +TSRA BKN020CB 560002
BECMG 1820/1823 22006KT 520002
No reported NOTAMs for that airfield.
2 SIGMETs reported for the Madrid FIR (LECM) :
 
Embedded thunderstorms
LECM SIGMET 9 VALID 181800/182000 LEVA
LECM MADRID FIR/UIR EMBD TS OBS AT 1745Z WI N3751 W00327 - N3549 W00456 - N3546 W002 - N3754 W00132 - N3751 W00327 TOP FL380 MOV NE NC=
Embedded thunderstorms
LECM SIGMET 8 VALID 181600/181800 LEVA
LECM MADRID FIR/UIR EMBD TS OBS AT 1542Z WI N3551 W00552 - N3747 W00501 - N3758 W00136 - N3552 W00201 - N3551 W00552 TOP FL380 MOV NE NC=



MET'MAP, your aeronautical weather chart ! - Copyright ORBIFLY December 2007 - Disclaimer

ORBIFLY MET'MAP TEAM :

Programming & Development : Alexandra Zaïnal
Concept & Development : Baudouin d'Aumeries
Co-Development & Prog : Marc-Olivier Méhu
Technical & hardware support : Manuel Goepfert

Contact : metmap@orbifly.com




SOURCES & CREDITS :

   NOAA